Time;durP1;ratioP1;P1;durP2;ratioP2;P2;SDS_P1;SDS_P2;PMS_P1;PMS_P2;Temp;Humidity;BMP_temperature;BMP_pressure;BME280_temperature;BME280_humidity;BME280_pressure;Samples;Min_cycle;Max_cycle;Signal;HPM_P1;HPM_P2
2023/01/08 00:00:46;;;;;;;;;;;;;;;9.37;46.79;99406.78;5111333;28;20403;-77
2023/01/08 00:03:12;;;;;;;;;;;;;;;9.37;46.68;99409.41;5094561;28;19916;-77
2023/01/08 00:05:37;;;;;;;;;;;;;;;9.36;46.76;99412.97;5112725;28;19923;-77
2023/01/08 00:08:03;;;;;;;;;;;;;;;9.36;46.55;99406.88;5094389;28;19915;-77
2023/01/08 00:10:28;;;;;;;;;;;;;;;9.34;46.91;99406.16;5111473;28;19923;-77
2023/01/08 00:12:56;;;;;;;;;;;;;;;9.33;46.72;99401.84;5111489;28;19963;-77
2023/01/08 00:15:22;;;;;;;;;;;;;;;9.29;46.92;99400.38;5128320;28;19932;-76
2023/01/08 00:17:47;;;;;;;;;;;;;;;9.29;46.81;99408.19;5111586;28;20014;-76
2023/01/08 00:20:12;;;;;;;;;;;;;;;9.29;47.05;99408.19;5111461;28;19922;-76
2023/01/08 00:22:38;;;;;;;;;;;;;;;9.28;47.04;99409.13;5111128;28;19916;-76
2023/01/08 00:25:03;;;;;;;;;;;;;;;9.27;46.88;99410.91;5112513;28;19927;-76
2023/01/08 00:27:28;;;;;;;;;;;;;;;9.27;46.81;99407.47;5112472;28;19915;-76
2023/01/08 00:29:54;;;;;;;;;;;;;;;9.27;47.16;99404.84;5113788;28;19915;-76
2023/01/08 00:32:19;;;;;;;;;;;;;;;9.24;47.26;99406.69;5116306;28;19971;-76
2023/01/08 00:34:44;;;;;;;;;;;;;;;9.23;47.22;99404.19;5098840;28;20011;-76
2023/01/08 00:37:10;;;;;;;;;;;;;;;9.22;47.36;99413.78;5094589;28;20010;-76
2023/01/08 00:39:35;;;;;;;;;;;;;;;9.20;47.02;99417.38;5095883;28;19920;-76
2023/01/08 00:42:00;;;;;;;;;;;;;;;9.20;47.37;99410.44;5094463;28;20285;-76
2023/01/08 00:44:25;;;;;;;;;;;;;;;9.19;47.14;99407.91;5094339;28;19920;-76
2023/01/08 00:46:51;;;;;;;;;;;;;;;9.18;47.39;99404.47;5093994;28;19916;-76
2023/01/08 00:49:16;;;;;;;;;;;;;;;9.17;47.11;99405.41;5094369;28;19916;-76
2023/01/08 00:51:41;;;;;;;;;;;;;;;9.16;47.59;99408.09;5093832;28;19924;-76
2023/01/08 00:54:08;;;;;;;;;;;;;;;9.15;47.50;99411.63;5095494;28;19916;-76
2023/01/08 00:56:33;;;;;;;;;;;;;;;9.15;47.42;99420.28;5093969;28;19959;-76
2023/01/08 00:58:58;;;;;;;;;;;;;;;9.14;47.33;99417.75;5095270;28;19916;-76
2023/01/08 01:01:23;;;;;;;;;;;;;;;9.14;47.43;99417.75;5093851;28;19955;-76
2023/01/08 01:03:49;;;;;;;;;;;;;;;9.13;47.60;99423.91;5095198;28;20275;-76
2023/01/08 01:06:14;;;;;;;;;;;;;;;9.13;47.49;99431.72;5095240;28;20450;-76
2023/01/08 01:08:40;;;;;;;;;;;;;;;9.14;47.63;99443.81;5094146;28;20380;-76
2023/01/08 01:11:09;;;;;;;;;;;;;;;9.13;47.34;99456.00;5076741;28;20121;-76
2023/01/08 01:13:34;;;;;;;;;;;;;;;9.12;47.31;99453.47;5094049;28;19937;-76
2023/01/08 01:16:00;;;;;;;;;;;;;;;9.11;47.59;99442.22;5095097;28;20002;-76
2023/01/08 01:18:26;;;;;;;;;;;;;;;9.12;47.36;99443.88;5095381;28;19927;-76
2023/01/08 01:20:51;;;;;;;;;;;;;;;9.10;47.60;99444.94;5076648;28;19912;-76
2023/01/08 01:23:16;;;;;;;;;;;;;;;9.08;47.44;99444.16;5076857;28;19922;-77
2023/01/08 01:25:41;;;;;;;;;;;;;;;9.05;47.50;99442.59;5059292;28;19920;-76
2023/01/08 01:28:07;;;;;;;;;;;;;;;9.02;47.55;99440.16;5059905;28;20247;-75
2023/01/08 01:30:32;;;;;;;;;;;;;;;8.99;46.94;99445.56;5076529;28;19916;-76
2023/01/08 01:32:57;;;;;;;;;;;;;;;8.94;47.30;99443.22;5076796;28;20022;-76
2023/01/08 01:35:23;;;;;;;;;;;;;;;8.93;47.03;99440.69;5076312;28;19941;-77
2023/01/08 01:37:48;;;;;;;;;;;;;;;8.91;46.84;99434.75;5094403;28;19945;-76
2023/01/08 01:40:13;;;;;;;;;;;;;;;8.87;47.06;99434.94;5059492;28;19916;-76
2023/01/08 01:42:39;;;;;;;;;;;;;;;8.83;47.15;99428.22;5075803;28;19924;-76
2023/01/08 01:45:13;;;;;;;;;;;;;;;8.80;47.20;99427.56;5076377;28;19973;-76
2023/01/08 01:47:39;;;;;;;;;;;;;;;8.78;46.75;99421.63;5094552;28;20472;-75
2023/01/08 01:50:04;;;;;;;;;;;;;;;8.74;47.03;99418.31;5076256;28;19971;-77
2023/01/08 01:52:30;;;;;;;;;;;;;;;8.71;46.51;99420.28;5094246;28;20010;-76
2023/01/08 01:54:55;;;;;;;;;;;;;;;8.70;46.77;99416.84;5076530;28;19916;-76
2023/01/08 01:57:20;;;;;;;;;;;;;;;8.65;46.70;99414.50;5076070;28;19920;-75
2023/01/08 01:59:46;;;;;;;;;;;;;;;8.62;46.58;99419.88;5076139;28;19923;-77
2023/01/08 02:02:11;;;;;;;;;;;;;;;8.59;46.53;99417.44;5093759;28;19923;-76
2023/01/08 02:04:36;;;;;;;;;;;;;;;8.59;46.83;99416.63;5059697;28;19916;-76
2023/01/08 02:07:04;;;;;;;;;;;;;;;8.56;46.64;99415.03;5059500;28;19920;-75
2023/01/08 02:09:34;;;;;;;;;;;;;;;8.55;46.92;99415.13;5075871;28;19928;-76
2023/01/08 02:12:18;;;;;;;;;;;;;;;8.54;47.04;99416.03;5075563;28;20421;-76
2023/01/08 02:14:46;;;;;;;;;;;;;;;8.50;46.86;99418.81;5060780;28;19923;-76
2023/01/08 02:17:13;;;;;;;;;;;;;;;8.49;46.58;99416.28;5093849;28;19932;-75
2023/01/08 02:19:51;;;;;;;;;;;;;;;8.47;47.30;99410.34;5075748;28;20030;-75
2023/01/08 02:22:28;;;;;;;;;;;;;;;8.47;46.69;99412.94;5058563;28;19916;-75
2023/01/08 02:24:55;;;;;;;;;;;;;;;8.45;46.73;99415.63;5058855;28;19955;-76
2023/01/08 02:27:20;;;;;;;;;;;;;;;8.42;47.43;99409.75;5075591;28;19916;-75
2023/01/08 02:29:45;;;;;;;;;;;;;;;8.40;47.30;99407.22;5075527;28;19973;-75
2023/01/08 02:32:11;;;;;;;;;;;;;;;8.40;47.37;99401.19;5075486;28;19923;-76
2023/01/08 02:34:36;;;;;;;;;;;;;;;8.40;47.31;99402.03;5093070;28;19916;-76
2023/01/08 02:37:01;;;;;;;;;;;;;;;8.38;47.50;99401.28;5075302;28;19916;-76
2023/01/08 02:39:39;;;;;;;;;;;;;;;8.37;47.47;99396.16;5093181;28;19916;-76
2023/01/08 02:42:19;;;;;;;;;;;;;;;8.34;47.72;99398.00;5075131;28;19939;-75
2023/01/08 02:44:51;;;;;;;;;;;;;;;8.33;47.68;99396.34;5075057;28;19916;-75
2023/01/08 02:47:18;;;;;;;;;;;;;;;8.32;47.36;99393.81;5092946;28;19920;-75
2023/01/08 02:49:44;;;;;;;;;;;;;;;8.31;47.68;99397.34;5074878;28;20383;-76
2023/01/08 02:52:09;;;;;;;;;;;;;;;8.30;47.63;99387.84;5074149;28;19951;-75
2023/01/08 02:54:35;;;;;;;;;;;;;;;8.29;47.45;99383.59;5093396;28;20001;-76
2023/01/08 02:57:02;;;;;;;;;;;;;;;8.26;48.14;99386.34;5093048;28;19930;-76
2023/01/08 02:59:28;;;;;;;;;;;;;;;8.28;47.63;99384.50;5057990;28;19916;-76
2023/01/08 03:01:53;;;;;;;;;;;;;;;8.28;48.08;99387.09;5058022;28;19916;-76
2023/01/08 03:04:19;;;;;;;;;;;;;;;8.26;47.70;99378.56;5057489;28;20383;-77
2023/01/08 03:06:45;;;;;;;;;;;;;;;8.24;47.87;99385.59;5058166;28;19916;-77
2023/01/08 03:09:10;;;;;;;;;;;;;;;8.22;47.69;99383.06;5075022;28;20292;-77
2023/01/08 03:11:56;;;;;;;;;;;;;;;8.22;47.89;99390.03;5074718;28;19927;-77
2023/01/08 03:14:25;;;;;;;;;;;;;;;8.22;48.01;99384.84;4994302;28;20064;-75
2023/01/08 03:16:57;;;;;;;;;;;;;;;8.20;48.03;99382.31;5003570;28;19925;-76
2023/01/08 03:19:35;;;;;;;;;;;;;;;8.18;47.82;99373.78;5030565;28;19924;-76
2023/01/08 03:22:00;;;;;;;;;;;;;;;8.18;47.90;99372.94;5014091;28;20007;-76
2023/01/08 03:24:27;;;;;;;;;;;;;;;8.17;48.46;99371.25;4997663;28;20008;-76
2023/01/08 03:26:53;;;;;;;;;;;;;;;8.15;48.56;99374.78;5013321;28;19917;-76
2023/01/08 03:29:19;;;;;;;;;;;;;;;8.14;48.48;99378.31;4997608;28;19925;-75
2023/01/08 03:31:44;;;;;;;;;;;;;;;8.14;48.64;99374.88;5013849;28;20397;-75
2023/01/08 03:34:10;;;;;;;;;;;;;;;8.12;48.24;99377.56;5019685;28;19916;-75
2023/01/08 03:36:35;;;;;;;;;;;;;;;8.12;48.73;99379.31;5033685;28;19921;-75
2023/01/08 03:39:07;;;;;;;;;;;;;;;8.12;48.34;99377.56;5033641;28;20360;-75
2023/01/08 03:41:32;;;;;;;;;;;;;;;8.10;48.85;99378.56;5033641;28;19916;-76
2023/01/08 03:43:58;;;;;;;;;;;;;;;8.09;48.60;99380.31;5033388;28;19923;-76
2023/01/08 03:46:26;;;;;;;;;;;;;;;8.09;48.73;99385.53;5050121;28;20384;-77
2023/01/08 03:48:51;;;;;;;;;;;;;;;8.08;48.42;99378.66;5033413;28;20328;-76
2023/01/08 03:51:17;;;;;;;;;;;;;;;8.09;49.02;99384.69;5057393;28;19916;-76
2023/01/08 03:53:43;;;;;;;;;;;;;;;8.08;48.93;99381.25;5092577;28;19923;-75
2023/01/08 03:56:08;;;;;;;;;;;;;;;8.07;48.61;99382.19;5091191;28;20444;-76
2023/01/08 03:58:33;;;;;;;;;;;;;;;8.07;48.51;99383.94;5092483;28;20394;-76
2023/01/08 04:00:59;;;;;;;;;;;;;;;8.07;49.03;99381.34;5092453;28;20303;-77
2023/01/08 04:03:24;;;;;;;;;;;;;;;8.05;49.08;99384.03;5091803;28;19966;-76
2023/01/08 04:05:50;;;;;;;;;;;;;;;8.05;49.25;99384.03;5096405;28;19940;-76
2023/01/08 04:08:15;;;;;;;;;;;;;;;8.03;48.82;99383.25;5096329;28;19923;-76
2023/01/08 04:10:40;;;;;;;;;;;;;;;8.05;49.55;99383.19;5094959;28;19919;-76
2023/01/08 04:13:05;;;;;;;;;;;;;;;8.04;49.26;99389.31;5096210;28;20401;-76
2023/01/08 04:15:31;;;;;;;;;;;;;;;8.01;49.10;99385.13;5077940;28;19924;-76
2023/01/08 04:17:56;;;;;;;;;;;;;;;8.02;49.14;99385.94;5096633;28;20030;-76
2023/01/08 04:20:22;;;;;;;;;;;;;;;8.01;49.18;99392.91;5078293;28;19920;-77
2023/01/08 04:22:47;;;;;;;;;;;;;;;8.00;49.00;99391.25;5061070;28;19916;-76
2023/01/08 04:25:12;;;;;;;;;;;;;;;8.00;49.00;99391.25;5077819;28;19916;-76
2023/01/08 04:27:38;;;;;;;;;;;;;;;7.99;48.68;99399.97;5078344;28;19955;-77
2023/01/08 04:30:03;;;;;;;;;;;;;;;8.00;49.20;99393.00;5077688;28;19916;-75
2023/01/08 04:32:28;;;;;;;;;;;;;;;7.97;49.33;99401.81;5095795;28;20394;-76
2023/01/08 04:34:54;;;;;;;;;;;;;;;7.95;49.60;99404.50;5071800;28;19916;-76
2023/01/08 04:37:19;;;;;;;;;;;;;;;7.93;49.34;99405.50;5097804;28;19916;-75
2023/01/08 04:39:44;;;;;;;;;;;;;;;7.93;49.51;99408.09;5097357;28;19916;-75
2023/01/08 04:42:09;;;;;;;;;;;;;;;7.93;49.44;99405.50;5097578;28;20018;-75
2023/01/08 04:44:35;;;;;;;;;;;;;;;7.91;49.36;99404.75;5097350;28;19916;-75
2023/01/08 04:47:00;;;;;;;;;;;;;;;7.90;49.68;99414.28;5097395;28;19919;-75
2023/01/08 04:49:25;;;;;;;;;;;;;;;7.91;49.35;99415.16;5097100;28;19926;-76
2023/01/08 04:51:51;;;;;;;;;;;;;;;7.89;49.17;99407.44;5115889;28;20239;-74
2023/01/08 04:54:16;;;;;;;;;;;;;;;7.89;49.40;99409.19;5097612;28;19934;-75
2023/01/08 04:56:41;;;;;;;;;;;;;;;7.89;48.96;99407.44;5097171;28;19963;-76
2023/01/08 04:59:06;;;;;;;;;;;;;;;7.89;49.12;99403.97;5097417;28;20006;-77
2023/01/08 05:01:32;;;;;;;;;;;;;;;7.88;49.49;99410.13;5097579;28;19964;-77
2023/01/08 05:03:58;;;;;;;;;;;;;;;7.86;49.86;99415.41;5115685;28;20006;-77
2023/01/08 05:06:23;;;;;;;;;;;;;;;7.84;49.47;99413.78;5097208;28;20348;-76
2023/01/08 05:08:49;;;;;;;;;;;;;;;7.84;49.90;99413.78;5097274;28;19999;-77
2023/01/08 05:11:14;;;;;;;;;;;;;;;7.82;49.54;99408.69;5097581;28;19916;-76
2023/01/08 05:13:39;;;;;;;;;;;;;;;7.81;49.63;99416.56;5096883;28;19922;-76
2023/01/08 05:16:05;;;;;;;;;;;;;;;7.81;49.54;99419.16;5114564;28;20043;-76
2023/01/08 05:18:30;;;;;;;;;;;;;;;7.78;49.47;99421.00;5115447;28;19946;-77
2023/01/08 05:21:02;;;;;;;;;;;;;;;7.75;49.61;99428.97;5097118;28;20010;-77
2023/01/08 05:23:28;;;;;;;;;;;;;;;7.73;49.44;99424.75;5097073;28;19916;-77
2023/01/08 05:25:55;;;;;;;;;;;;;;;7.71;49.37;99418.81;5114992;28;20294;-76
2023/01/08 05:28:21;;;;;;;;;;;;;;;7.69;49.70;99424.09;5096827;28;19916;-77
2023/01/08 05:30:48;;;;;;;;;;;;;;;7.68;49.37;99425.00;5097136;28;19927;-78
2023/01/08 05:33:13;;;;;;;;;;;;;;;7.68;49.69;99425.00;5079908;28;20002;-76
2023/01/08 05:35:38;;;;;;;;;;;;;;;7.67;48.99;99428.56;5098535;28;19967;-76
2023/01/08 05:38:04;;;;;;;;;;;;;;;7.66;49.62;99429.47;5094601;28;19916;-75
2023/01/08 05:40:29;;;;;;;;;;;;;;;7.65;49.41;99430.38;5094793;28;20345;-76
2023/01/08 05:42:54;;;;;;;;;;;;;;;7.65;49.25;99432.97;5093193;28;20015;-76
2023/01/08 05:45:20;;;;;;;;;;;;;;;7.64;49.41;99433.91;5093175;28;19922;-76
2023/01/08 05:47:45;;;;;;;;;;;;;;;7.65;49.18;99447.72;5075663;28;20007;-76
2023/01/08 05:50:10;;;;;;;;;;;;;;;7.65;49.18;99438.16;5092346;28;20316;-76
2023/01/08 05:52:35;;;;;;;;;;;;;;;7.67;49.18;99438.94;5094223;28;19920;-76
2023/01/08 05:55:01;;;;;;;;;;;;;;;7.72;49.18;99449.94;5092777;28;20471;-76
2023/01/08 05:57:26;;;;;;;;;;;;;;;7.78;48.64;99439.22;5092909;28;19920;-76
2023/01/08 05:59:51;;;;;;;;;;;;;;;7.90;48.89;99448.09;5092982;28;19916;-76
2023/01/08 06:02:17;;;;;;;;;;;;;;;8.09;48.15;99449.69;5093209;28;19923;-76
2023/01/08 06:04:42;;;;;;;;;;;;;;;8.32;47.63;99444.06;5092952;28;19916;-76
2023/01/08 06:07:07;;;;;;;;;;;;;;;8.57;47.58;99454.88;5092830;28;19916;-75
2023/01/08 06:09:33;;;;;;;;;;;;;;;8.86;47.07;99464.47;5093811;28;19916;-75
2023/01/08 06:11:58;;;;;;;;;;;;;;;9.24;46.63;99463.19;5093476;28;20392;-76
2023/01/08 06:14:23;;;;;;;;;;;;;;;9.66;45.83;99458.94;5092610;28;20462;-76
2023/01/08 06:16:49;;;;;;;;;;;;;;;10.14;44.84;99459.41;5075396;28;19924;-76
2023/01/08 06:19:14;;;;;;;;;;;;;;;10.75;43.69;99466.06;5092611;28;20260;-77
2023/01/08 06:21:39;;;;;;;;;;;;;;;11.47;41.98;99465.66;5075391;28;20398;-76
2023/01/08 06:24:05;;;;;;;;;;;;;;;12.28;40.68;99469.59;5092402;28;19927;-76
2023/01/08 06:26:30;;;;;;;;;;;;;;;13.20;38.36;99462.84;5091990;28;19966;-76
2023/01/08 06:28:55;;;;;;;;;;;;;;;14.15;36.34;99461.66;5093160;28;19920;-76
2023/01/08 06:31:20;;;;;;;;;;;;;;;15.02;34.50;99460.78;5094010;28;19965;-76
2023/01/08 06:33:46;;;;;;;;;;;;;;;15.86;32.61;99457.25;5092404;28;20339;-75
2023/01/08 06:36:11;;;;;;;;;;;;;;;16.56;31.47;99459.91;5093306;28;19923;-76
2023/01/08 06:38:36;;;;;;;;;;;;;;;17.16;30.38;99463.22;5075450;28;19916;-76
2023/01/08 06:41:05;;;;;;;;;;;;;;;17.62;29.80;99462.56;5075692;28;19923;-76
2023/01/08 06:43:31;;;;;;;;;;;;;;;17.99;29.38;99464.38;5075248;28;20029;-77
2023/01/08 06:45:57;;;;;;;;;;;;;;;18.22;29.00;99468.28;5075468;28;20452;-77
2023/01/08 06:48:22;;;;;;;;;;;;;;;18.28;28.90;99461.56;5093484;28;19967;-78
2023/01/08 06:50:48;;;;;;;;;;;;;;;18.20;28.95;99464.97;5058514;28;19966;-77
2023/01/08 06:53:13;;;;;;;;;;;;;;;18.11;29.20;99470.31;5058366;28;19916;-76
2023/01/08 06:55:38;;;;;;;;;;;;;;;18.07;28.86;99472.38;5075187;28;19923;-77
2023/01/08 06:58:03;;;;;;;;;;;;;;;18.10;28.86;99472.09;5075266;28;20371;-77
2023/01/08 07:00:29;;;;;;;;;;;;;;;18.22;28.74;99473.56;5074950;28;20015;-76
2023/01/08 07:02:54;;;;;;;;;;;;;;;18.35;28.38;99477.66;5074985;28;19916;-77
2023/01/08 07:05:19;;;;;;;;;;;;;;;18.58;28.16;99480.69;5093073;28;19916;-76
2023/01/08 07:07:45;;;;;;;;;;;;;;;18.77;27.96;99483.19;5074966;28;19915;-77
2023/01/08 07:10:10;;;;;;;;;;;;;;;18.98;27.60;99484.72;5074831;28;19998;-76
2023/01/08 07:12:35;;;;;;;;;;;;;;;19.12;27.32;99476.25;5075169;28;20005;-77
2023/01/08 07:15:01;;;;;;;;;;;;;;;19.25;27.24;99482.94;5058238;28;20405;-78
2023/01/08 07:17:26;;;;;;;;;;;;;;;19.38;27.08;99485.19;5092478;28;19928;-78
2023/01/08 07:19:51;;;;;;;;;;;;;;;19.52;26.98;99484.59;5074624;28;19916;-77
2023/01/08 07:22:17;;;;;;;;;;;;;;;19.71;26.72;99481.72;5057686;28;19916;-77
2023/01/08 07:24:42;;;;;;;;;;;;;;;19.97;26.40;99474.75;5057922;28;19923;-78
2023/01/08 07:27:07;;;;;;;;;;;;;;;20.28;26.04;99477.69;5091792;28;19938;-78
2023/01/08 07:29:33;;;;;;;;;;;;;;;20.63;25.49;99475.75;5092261;28;19946;-77
2023/01/08 07:31:58;;;;;;;;;;;;;;;20.96;24.97;99481.94;5063937;28;19916;-78
2023/01/08 07:34:24;;;;;;;;;;;;;;;21.24;24.70;99483.44;5085802;28;19920;-77
2023/01/08 07:36:49;;;;;;;;;;;;;;;21.45;24.26;99482.91;5073618;28;19916;-77
2023/01/08 07:39:14;;;;;;;;;;;;;;;21.62;23.80;99486.38;5076066;28;19920;-77
2023/01/08 07:41:40;;;;;;;;;;;;;;;21.79;23.56;99481.81;5085675;28;19954;-78
2023/01/08 07:44:05;;;;;;;;;;;;;;;21.94;23.51;99487.25;5100699;28;19916;-78
2023/01/08 07:46:31;;;;;;;;;;;;;;;;;;5060771;28;20314;-76
2023/01/08 07:48:57;;;;;;;;;;;;;;;22.29;23.04;99485.91;5087957;28;20496;-77
2023/01/08 07:51:23;;;;;;;;;;;;;;;22.46;22.87;99488.53;5077862;28;19916;-78
2023/01/08 07:53:50;;;;;;;;;;;;;;;22.65;22.89;99489.91;5078245;28;20011;-76
2023/01/08 07:56:15;;;;;;;;;;;;;;;22.83;22.61;99492.25;5078551;28;19916;-76
2023/01/08 07:58:40;;;;;;;;;;;;;;;22.99;22.29;99494.78;5078615;28;19965;-75
2023/01/08 08:01:07;;;;;;;;;;;;;;;23.05;22.41;99498.59;5060443;28;19924;-76
2023/01/08 08:03:32;;;;;;;;;;;;;;;23.13;22.23;99498.53;5096271;28;19916;-79
2023/01/08 08:05:58;;;;;;;;;;;;;;;23.18;21.97;99485.50;5060939;28;20452;-77
2023/01/08 08:08:25;;;;;;;;;;;;;;;23.33;26.28;99495.38;5083311;28;20014;-79
2023/01/08 08:10:50;;;;;;;;;;;;;;;23.38;26.98;99493.81;5084033;28;20394;-78
2023/01/08 08:13:15;;;;;;;;;;;;;;;23.66;30.66;99495.88;5061635;28;19959;-79
2023/01/08 08:15:41;;;;;;;;;;;;;;;23.87;32.01;99505.81;5078105;28;19931;-77
2023/01/08 08:18:06;;;;;;;;;;;;;;;24.04;32.19;99495.78;5078602;28;19920;-73
2023/01/08 08:20:31;;;;;;;;;;;;;;;24.19;28.82;99501.09;5060863;28;20375;-77
2023/01/08 08:23:04;;;;;;;;;;;;;;;24.28;28.95;99497.28;5077849;28;19916;-76
2023/01/08 08:25:29;;;;;;;;;;;;;;;24.45;26.75;99497.06;5060925;28;19916;-79
2023/01/08 08:27:55;;;;;;;;;;;;;;;24.60;24.88;99494.38;5061261;28;19984;-75
2023/01/08 08:30:20;;;;;;;;;;;;;;;24.72;23.70;99490.19;5060918;28;20360;-72
2023/01/08 08:32:46;;;;;;;;;;;;;;;24.87;22.35;99495.47;5096322;28;19920;-74
2023/01/08 08:35:11;;;;;;;;;;;;;;;24.93;22.01;99495.53;5077852;28;19916;-75
2023/01/08 08:37:36;;;;;;;;;;;;;;;25.03;21.64;99492.53;5061059;28;19916;-73
2023/01/08 08:40:02;;;;;;;;;;;;;;;25.14;20.98;99485.00;5077271;28;19996;-73
2023/01/08 08:42:27;;;;;;;;;;;;;;;25.23;21.21;99494.53;5076890;28;19916;-73
2023/01/08 08:44:52;;;;;;;;;;;;;;;25.32;20.64;99490.75;5077640;28;19923;-74
2023/01/08 08:47:18;;;;;;;;;;;;;;;25.38;20.26;99487.28;5095788;28;20273;-74
2023/01/08 08:49:43;;;;;;;;;;;;;;;25.38;20.25;99489.97;5076500;28;19916;-74
2023/01/08 08:52:08;;;;;;;;;;;;;;;25.46;20.00;99489.00;5076932;28;19923;-74
2023/01/08 08:54:34;;;;;;;;;;;;;;;25.53;20.11;99484.50;5077737;28;20371;-74
2023/01/08 08:56:59;;;;;;;;;;;;;;;25.61;20.09;99489.69;5060457;28;19923;-76
2023/01/08 08:59:24;;;;;;;;;;;;;;;25.67;19.82;99485.41;5077023;28;19969;-76
2023/01/08 09:01:50;;;;;;;;;;;;;;;25.72;19.75;99480.28;5095600;28;19966;-76
2023/01/08 09:04:15;;;;;;;;;;;;;;;25.90;19.57;99485.13;5095385;28;19916;-74
2023/01/08 09:06:40;;;;;;;;;;;;;;;26.02;19.72;99479.22;5061339;28;20280;-76
2023/01/08 09:09:06;;;;;;;;;;;;;;;26.08;19.73;99478.44;5077187;28;20356;-77
2023/01/08 09:11:31;;;;;;;;;;;;;;;26.22;19.47;99485.47;5077344;28;19923;-76
2023/01/08 09:13:56;;;;;;;;;;;;;;;26.28;18.90;99467.78;5077113;28;20370;-72
2023/01/08 09:16:21;;;;;;;;;;;;;;;26.35;20.00;99474.00;5095366;28;20337;-76
2023/01/08 09:18:48;;;;;;;;;;;;;;;26.44;19.83;99474.63;5095213;28;20412;-78
2023/01/08 09:21:13;;;;;;;;;;;;;;;26.51;19.36;99473.59;5077211;28;19973;-78
2023/01/08 09:23:38;;;;;;;;;;;;;;;26.61;19.00;99465.16;5060000;28;19959;-75
2023/01/08 09:26:04;;;;;;;;;;;;;;;26.69;19.16;99461.50;5095357;28;19922;-79
2023/01/08 09:28:29;;;;;;;;;;;;;;;26.70;19.05;99461.31;5077446;28;20261;-77
2023/01/08 09:30:54;;;;;;;;;;;;;;;26.86;18.65;99453.91;5060041;28;19951;-76
2023/01/08 09:33:20;;;;;;;;;;;;;;;26.79;18.61;99453.06;5077141;28;19923;-79
2023/01/08 09:35:45;;;;;;;;;;;;;;;26.86;18.38;99446.69;5076719;28;19955;-76
2023/01/08 09:38:10;;;;;;;;;;;;;;;26.89;18.55;99442.78;5077120;28;19916;-72
2023/01/08 09:40:40;;;;;;;;;;;;;;;26.83;18.47;99443.59;5094534;28;20015;-80
2023/01/08 09:43:06;;;;;;;;;;;;;;;26.98;18.36;99438.88;5059381;28;19923;-76
2023/01/08 09:45:35;;;;;;;;;;;;;;;27.46;18.08;99436.97;5076295;28;20007;-75
2023/01/08 09:48:05;;;;;;;;;;;;;;;28.43;16.82;99434.28;5059652;28;19916;-81
2023/01/08 09:50:31;;;;;;;;;;;;;;;29.41;16.02;99435.56;5059681;28;19916;-78
2023/01/08 09:52:57;;;;;;;;;;;;;;;30.48;16.08;99432.38;5094516;28;19970;-76
2023/01/08 09:55:22;;;;;;;;;;;;;;;31.55;14.81;99433.28;5085524;28;19924;-76
2023/01/08 09:57:47;;;;;;;;;;;;;;;32.35;13.80;99422.66;5113460;28;19922;-76
2023/01/08 10:00:29;;;;;;;;;;;;;;;32.91;13.41;99420.09;5094595;28;19916;-77
2023/01/08 10:02:55;;;;;;;;;;;;;;;33.48;12.39;99419.00;5114338;28;19916;-74
2023/01/08 10:05:20;;;;;;;;;;;;;;;33.82;12.12;99420.78;5096374;28;20006;-75
2023/01/08 10:07:45;;;;;;;;;;;;;;;34.13;12.26;99413.81;5096223;28;19916;-74
2023/01/08 10:10:25;;;;;;;;;;;;;;;34.35;11.81;99411.06;5096363;28;19916;-75
2023/01/08 10:12:50;;;;;;;;;;;;;;;34.15;12.05;99405.44;5079225;28;19916;-76
2023/01/08 10:15:16;;;;;;;;;;;;;;;34.38;12.04;99409.72;5096278;28;19922;-77
2023/01/08 10:18:02;;;;;;;;;;;;;;;34.42;11.42;99394.59;5092798;28;20238;-77
2023/01/08 10:20:27;;;;;;;;;;;;;;;34.08;11.58;99397.53;5114146;28;19923;-77
2023/01/08 10:22:53;;;;;;;;;;;;;;;33.52;12.29;99387.66;5113750;28;19916;-77
2023/01/08 10:25:21;;;;;;;;;;;;;;;33.00;12.46;99383.47;5113040;28;19916;-76
2023/01/08 10:27:56;;;;;;;;;;;;;;;32.27;13.43;99369.84;5112946;28;20018;-76
2023/01/08 10:30:23;;;;;;;;;;;;;;;31.45;14.08;99373.66;5112367;28;19919;-76
2023/01/08 10:32:52;;;;;;;;;;;;;;;30.72;14.82;99372.31;5114075;28;19915;-78
2023/01/08 10:35:18;;;;;;;;;;;;;;;30.31;15.01;99372.13;5095679;28;19927;-78
2023/01/08 10:37:45;;;;;;;;;;;;;;;29.68;15.62;99366.16;5112770;28;19916;-76
2023/01/08 10:40:29;;;;;;;;;;;;;;;29.18;16.42;99367.13;5112610;28;19916;-76
2023/01/08 10:42:55;;;;;;;;;;;;;;;28.72;16.81;99363.03;5113721;28;19916;-77
2023/01/08 10:45:21;;;;;;;;;;;;;;;28.34;17.50;99366.63;5112308;28;19916;-76
2023/01/08 10:47:47;;;;;;;;;;;;;;;28.03;17.56;99354.03;5095607;28;19988;-77
2023/01/08 10:50:18;;;;;;;;;;;;;;;27.66;17.71;99351.91;5112600;28;19916;-77
2023/01/08 10:52:50;;;;;;;;;;;;;;;27.18;18.42;99353.06;5112522;28;19947;-76
2023/01/08 10:55:21;;;;;;;;;;;;;;;26.87;18.55;99343.88;5112710;28;19915;-76
2023/01/08 10:57:57;;;;;;;;;;;;;;;26.52;18.85;99349.44;5113624;28;20378;-75
2023/01/08 11:00:23;;;;;;;;;;;;;;;26.25;19.20;99345.94;5095241;28;19926;-76
2023/01/08 11:02:49;;;;;;;;;;;;;;;25.99;19.14;99339.50;5095027;28;19955;-77
2023/01/08 11:05:14;;;;;;;;;;;;;;;25.72;19.29;99337.75;5112303;28;19916;-77
2023/01/08 11:07:40;;;;;;;;;;;;;;;25.47;19.77;99340.94;5112345;28;19916;-78
2023/01/08 11:10:05;;;;;;;;;;;;;;;25.22;19.83;99345.94;5111924;28;20318;-78
2023/01/08 11:12:32;;;;;;;;;;;;;;;25.01;20.16;99344.19;5112165;28;20375;-78
2023/01/08 11:14:58;;;;;;;;;;;;;;;24.82;20.54;99345.69;5111437;28;19916;-76
2023/01/08 11:17:23;;;;;;;;;;;;;;;24.63;20.70;99342.69;5113337;28;20014;-76
2023/01/08 11:19:49;;;;;;;;;;;;;;;24.48;20.93;99328.56;5077916;28;20020;-77
2023/01/08 11:22:18;;;;;;;;;;;;;;;24.32;21.43;99333.19;5094278;28;19915;-77
2023/01/08 11:24:43;;;;;;;;;;;;;;;24.10;21.62;99323.50;5094719;28;20014;-76
2023/01/08 11:27:11;;;;;;;;;;;;;;;23.97;21.75;99330.38;5113312;28;20358;-78
2023/01/08 11:29:43;;;;;;;;;;;;;;;23.79;22.10;99328.09;5112876;28;19919;-76
2023/01/08 11:32:17;;;;;;;;;;;;;;;23.66;22.20;99328.78;5077583;28;19973;-76
2023/01/08 11:34:49;;;;;;;;;;;;;;;23.53;22.58;99325.13;5094722;28;20414;-76
2023/01/08 11:37:20;;;;;;;;;;;;;;;23.38;22.68;99323.31;5112771;28;19923;-77
2023/01/08 11:39:46;;;;;;;;;;;;;;;23.19;22.76;99314.06;5094638;28;19969;-77
2023/01/08 11:42:19;;;;;;;;;;;;;;;23.02;23.02;99318.72;5077683;28;19916;-77
2023/01/08 11:44:47;;;;;;;;;;;;;;;22.81;23.28;99318.63;5093812;28;19923;-77
2023/01/08 11:47:18;;;;;;;;;;;;;;;22.62;23.38;99314.66;5112760;28;20014;-78
2023/01/08 11:49:46;;;;;;;;;;;;;;;22.36;23.64;99310.53;5112987;28;19916;-77
2023/01/08 11:52:18;;;;;;;;;;;;;;;22.20;23.77;99309.66;5094611;28;19916;-78
2023/01/08 11:54:52;;;;;;;;;;;;;;;21.98;24.18;99307.81;5093505;28;19916;-79
2023/01/08 11:57:21;;;;;;;;;;;;;;;21.64;26.12;99309.84;5111300;28;19974;-76
2023/01/08 11:59:55;;;;;;;;;;;;;;;21.39;25.79;99305.63;5112610;28;19987;-73
2023/01/08 12:02:39;;;;;;;;;;;;;;;21.22;25.63;99304.88;5078196;28;20441;-72
2023/01/08 12:05:19;;;;;;;;;;;;;;;21.01;34.19;99303.63;5092174;28;19916;-76
2023/01/08 12:07:48;;;;;;;;;;;;;;;20.82;31.01;99304.81;5092240;28;19916;-82
2023/01/08 12:10:25;;;;;;;;;;;;;;;20.73;34.50;99305.84;5093004;28;19916;-77
2023/01/08 12:12:56;;;;;;;;;;;;;;;20.61;35.62;99311.47;5073675;28;19927;-77
2023/01/08 12:15:31;;;;;;;;;;;;;;;20.43;32.20;99303.69;5092199;28;19975;-75
2023/01/08 12:17:56;;;;;;;;;;;;;;;20.26;31.11;99296.75;5091814;28;19924;-75
2023/01/08 12:20:30;;;;;;;;;;;;;;;20.07;30.13;99295.25;5073513;28;19981;-76
2023/01/08 12:22:58;;;;;;;;;;;;;;;19.86;31.63;99301.84;5091695;28;19916;-76
2023/01/08 12:25:42;;;;;;;;;;;;;;;19.70;31.47;99305.28;5093816;28;19941;-78
2023/01/08 12:28:10;;;;;;;;;;;;;;;19.46;32.49;99295.41;5095548;28;19923;-76
2023/01/08 12:30:54;;;;;;;;;;;;;;;19.25;34.88;99290.56;5106154;28;20026;-79
2023/01/08 12:33:46;;;;;;;;;;;;;;;18.92;31.71;99286.94;5095517;28;19916;-77
2023/01/08 12:36:17;;;;;;;;;;;;;;;18.69;30.66;99292.75;5092389;28;20371;-78
2023/01/08 12:38:43;;;;;;;;;;;;;;;18.55;34.19;99288.84;5077793;28;19974;-82
2023/01/08 12:41:10;;;;;;;;;;;;;;;18.31;32.46;99288.66;5077701;28;19919;-84
2023/01/08 12:43:44;;;;;;;;;;;;;;;18.07;31.52;99290.94;5077583;28;19916;-80
2023/01/08 12:46:10;;;;;;;;;;;;;;;17.88;31.24;99288.44;5077373;28;20003;-82
2023/01/08 12:48:36;;;;;;;;;;;;;;;17.68;31.19;99298.31;5060637;28;19973;-77
2023/01/08 12:51:16;;;;;;;;;;;;;;;17.60;34.08;99287.63;5064978;28;19916;-75